sensor_id;sensor_type;location;lat;lon;timestamp;temperature;humidity
8248;DHT22;4164;49.844;8.830;2022-10-31T00:00:40;11.20;99.90
8248;DHT22;4164;49.844;8.830;2022-10-31T00:03:05;11.10;99.90
8248;DHT22;4164;49.844;8.830;2022-10-31T00:05:31;11.10;99.90
8248;DHT22;4164;49.844;8.830;2022-10-31T00:07:56;11.10;99.90
8248;DHT22;4164;49.844;8.830;2022-10-31T00:10:22;11.20;99.90
8248;DHT22;4164;49.844;8.830;2022-10-31T00:12:47;11.20;99.90
8248;DHT22;4164;49.844;8.830;2022-10-31T00:15:13;11.30;99.90
8248;DHT22;4164;49.844;8.830;2022-10-31T00:17:38;11.30;99.90
8248;DHT22;4164;49.844;8.830;2022-10-31T00:20:04;11.20;99.90
8248;DHT22;4164;49.844;8.830;2022-10-31T00:22:30;11.20;99.90
8248;DHT22;4164;49.844;8.830;2022-10-31T00:24:56;10.90;99.90
8248;DHT22;4164;49.844;8.830;2022-10-31T00:27:21;10.90;99.90
8248;DHT22;4164;49.844;8.830;2022-10-31T00:29:47;10.90;99.90
8248;DHT22;4164;49.844;8.830;2022-10-31T00:32:12;10.80;99.90
8248;DHT22;4164;49.844;8.830;2022-10-31T00:34:38;10.80;99.90
8248;DHT22;4164;49.844;8.830;2022-10-31T00:37:03;10.90;99.90
8248;DHT22;4164;49.844;8.830;2022-10-31T00:39:29;10.90;99.90
8248;DHT22;4164;49.844;8.830;2022-10-31T00:41:54;11.00;99.90
8248;DHT22;4164;49.844;8.830;2022-10-31T00:44:20;11.00;99.90
8248;DHT22;4164;49.844;8.830;2022-10-31T00:46:45;10.80;99.90
8248;DHT22;4164;49.844;8.830;2022-10-31T00:49:11;10.80;99.90
8248;DHT22;4164;49.844;8.830;2022-10-31T00:51:37;10.50;99.90
8248;DHT22;4164;49.844;8.830;2022-10-31T00:54:03;10.50;99.90
8248;DHT22;4164;49.844;8.830;2022-10-31T00:56:28;10.40;99.90
8248;DHT22;4164;49.844;8.830;2022-10-31T00:58:54;10.40;99.90
8248;DHT22;4164;49.844;8.830;2022-10-31T01:01:19;10.30;99.90
8248;DHT22;4164;49.844;8.830;2022-10-31T01:03:45;10.20;99.90
8248;DHT22;4164;49.844;8.830;2022-10-31T01:06:12;10.40;99.90
8248;DHT22;4164;49.844;8.830;2022-10-31T01:08:38;10.40;99.90
8248;DHT22;4164;49.844;8.830;2022-10-31T01:11:14;10.20;99.90
8248;DHT22;4164;49.844;8.830;2022-10-31T01:13:40;10.20;99.90
8248;DHT22;4164;49.844;8.830;2022-10-31T01:16:07;10.30;99.90
8248;DHT22;4164;49.844;8.830;2022-10-31T01:18:34;10.50;99.90
8248;DHT22;4164;49.844;8.830;2022-10-31T01:21:08;10.50;99.90
8248;DHT22;4164;49.844;8.830;2022-10-31T01:23:35;10.40;99.90
8248;DHT22;4164;49.844;8.830;2022-10-31T01:26:04;10.10;99.90
8248;DHT22;4164;49.844;8.830;2022-10-31T01:28:30;10.10;99.90
8248;DHT22;4164;49.844;8.830;2022-10-31T01:31:00;10.20;99.90
8248;DHT22;4164;49.844;8.830;2022-10-31T01:33:25;10.30;99.90
8248;DHT22;4164;49.844;8.830;2022-10-31T01:35:51;10.30;99.90
8248;DHT22;4164;49.844;8.830;2022-10-31T01:38:17;10.20;99.90
8248;DHT22;4164;49.844;8.830;2022-10-31T01:40:42;10.30;99.90
8248;DHT22;4164;49.844;8.830;2022-10-31T01:43:14;10.30;99.90
8248;DHT22;4164;49.844;8.830;2022-10-31T01:45:41;10.30;99.90
8248;DHT22;4164;49.844;8.830;2022-10-31T01:48:14;10.30;99.90
8248;DHT22;4164;49.844;8.830;2022-10-31T01:50:40;10.30;99.90
8248;DHT22;4164;49.844;8.830;2022-10-31T01:53:08;10.40;99.90
8248;DHT22;4164;49.844;8.830;2022-10-31T01:55:41;10.40;99.90
8248;DHT22;4164;49.844;8.830;2022-10-31T01:58:13;10.30;99.90
8248;DHT22;4164;49.844;8.830;2022-10-31T02:00:40;10.40;99.90
8248;DHT22;4164;49.844;8.830;2022-10-31T02:03:07;10.40;99.90
8248;DHT22;4164;49.844;8.830;2022-10-31T02:05:33;10.40;99.90
8248;DHT22;4164;49.844;8.830;2022-10-31T02:08:06;10.40;99.90
8248;DHT22;4164;49.844;8.830;2022-10-31T02:10:35;10.30;99.90
8248;DHT22;4164;49.844;8.830;2022-10-31T02:13:03;10.40;99.90
8248;DHT22;4164;49.844;8.830;2022-10-31T02:15:31;10.50;99.90
8248;DHT22;4164;49.844;8.830;2022-10-31T02:17:57;10.30;99.90
8248;DHT22;4164;49.844;8.830;2022-10-31T02:20:26;10.50;99.90
8248;DHT22;4164;49.844;8.830;2022-10-31T02:23:19;10.50;99.90
8248;DHT22;4164;49.844;8.830;2022-10-31T02:26:08;10.60;99.90
8248;DHT22;4164;49.844;8.830;2022-10-31T02:37:09;10.70;99.90
8248;DHT22;4164;49.844;8.830;2022-10-31T02:39:44;10.80;99.90
8248;DHT22;4164;49.844;8.830;2022-10-31T02:42:18;10.90;99.90
8248;DHT22;4164;49.844;8.830;2022-10-31T02:45:19;10.90;99.90
8248;DHT22;4164;49.844;8.830;2022-10-31T02:47:50;10.60;99.90
8248;DHT22;4164;49.844;8.830;2022-10-31T02:50:30;10.70;99.90
8248;DHT22;4164;49.844;8.830;2022-10-31T02:52:56;10.80;99.90
8248;DHT22;4164;49.844;8.830;2022-10-31T02:57:48;10.70;99.90
8248;DHT22;4164;49.844;8.830;2022-10-31T03:00:15;10.90;99.90
8248;DHT22;4164;49.844;8.830;2022-10-31T03:07:51;10.50;99.90
8248;DHT22;4164;49.844;8.830;2022-10-31T03:10:44;10.40;99.90
8248;DHT22;4164;49.844;8.830;2022-10-31T03:18:57;10.60;99.90
8248;DHT22;4164;49.844;8.830;2022-10-31T03:21:32;10.50;99.90
8248;DHT22;4164;49.844;8.830;2022-10-31T03:24:01;10.40;99.90
8248;DHT22;4164;49.844;8.830;2022-10-31T03:26:28;10.50;99.90
8248;DHT22;4164;49.844;8.830;2022-10-31T03:29:04;10.50;99.90
8248;DHT22;4164;49.844;8.830;2022-10-31T03:31:33;10.50;99.90
8248;DHT22;4164;49.844;8.830;2022-10-31T03:34:01;10.40;99.90
8248;DHT22;4164;49.844;8.830;2022-10-31T03:36:30;10.30;99.90
8248;DHT22;4164;49.844;8.830;2022-10-31T03:39:01;10.40;99.90
8248;DHT22;4164;49.844;8.830;2022-10-31T03:41:32;10.40;99.90
8248;DHT22;4164;49.844;8.830;2022-10-31T03:44:01;10.50;99.90
8248;DHT22;4164;49.844;8.830;2022-10-31T03:46:28;10.40;99.90
8248;DHT22;4164;49.844;8.830;2022-10-31T03:48:54;10.10;99.90
8248;DHT22;4164;49.844;8.830;2022-10-31T03:51:37;10.00;99.90
8248;DHT22;4164;49.844;8.830;2022-10-31T03:54:25;10.00;99.90
8248;DHT22;4164;49.844;8.830;2022-10-31T03:56:56;10.20;99.90
8248;DHT22;4164;49.844;8.830;2022-10-31T03:59:42;10.10;99.90
8248;DHT22;4164;49.844;8.830;2022-10-31T04:02:15;9.90;99.90
8248;DHT22;4164;49.844;8.830;2022-10-31T04:04:43;10.00;99.90
8248;DHT22;4164;49.844;8.830;2022-10-31T04:07:10;9.90;99.90
8248;DHT22;4164;49.844;8.830;2022-10-31T04:09:39;10.00;99.90
8248;DHT22;4164;49.844;8.830;2022-10-31T04:12:06;10.00;99.90
8248;DHT22;4164;49.844;8.830;2022-10-31T04:14:35;10.10;99.90
8248;DHT22;4164;49.844;8.830;2022-10-31T04:17:04;10.20;99.90
8248;DHT22;4164;49.844;8.830;2022-10-31T04:19:35;10.20;99.90
8248;DHT22;4164;49.844;8.830;2022-10-31T04:22:00;10.40;99.90
8248;DHT22;4164;49.844;8.830;2022-10-31T04:24:26;10.40;99.90
8248;DHT22;4164;49.844;8.830;2022-10-31T04:26:52;10.40;99.90
8248;DHT22;4164;49.844;8.830;2022-10-31T04:29:17;10.30;99.90
8248;DHT22;4164;49.844;8.830;2022-10-31T04:31:43;10.10;99.90
8248;DHT22;4164;49.844;8.830;2022-10-31T04:34:08;9.90;99.90
8248;DHT22;4164;49.844;8.830;2022-10-31T04:36:34;10.00;99.90
8248;DHT22;4164;49.844;8.830;2022-10-31T04:38:59;9.80;99.90
8248;DHT22;4164;49.844;8.830;2022-10-31T04:41:25;9.70;99.90
8248;DHT22;4164;49.844;8.830;2022-10-31T04:43:50;9.50;99.90
8248;DHT22;4164;49.844;8.830;2022-10-31T04:46:16;9.50;99.90
8248;DHT22;4164;49.844;8.830;2022-10-31T04:48:42;9.60;99.90
8248;DHT22;4164;49.844;8.830;2022-10-31T04:51:07;9.80;99.90
8248;DHT22;4164;49.844;8.830;2022-10-31T04:53:33;9.90;99.90
8248;DHT22;4164;49.844;8.830;2022-10-31T04:55:59;10.10;99.90
8248;DHT22;4164;49.844;8.830;2022-10-31T04:58:27;10.10;99.90
8248;DHT22;4164;49.844;8.830;2022-10-31T05:00:54;10.20;99.90
8248;DHT22;4164;49.844;8.830;2022-10-31T05:03:20;10.20;99.90
8248;DHT22;4164;49.844;8.830;2022-10-31T05:05:46;10.20;99.90
8248;DHT22;4164;49.844;8.830;2022-10-31T05:08:12;10.30;99.90
8248;DHT22;4164;49.844;8.830;2022-10-31T05:10:38;10.40;99.90
8248;DHT22;4164;49.844;8.830;2022-10-31T05:13:04;10.40;99.90
8248;DHT22;4164;49.844;8.830;2022-10-31T05:15:30;10.40;99.90
8248;DHT22;4164;49.844;8.830;2022-10-31T05:17:56;10.30;99.90
8248;DHT22;4164;49.844;8.830;2022-10-31T05:20:25;10.30;99.90
8248;DHT22;4164;49.844;8.830;2022-10-31T05:22:53;10.40;99.90
8248;DHT22;4164;49.844;8.830;2022-10-31T05:25:20;10.30;99.90
8248;DHT22;4164;49.844;8.830;2022-10-31T05:27:47;10.20;99.90
8248;DHT22;4164;49.844;8.830;2022-10-31T05:30:16;10.20;99.90
8248;DHT22;4164;49.844;8.830;2022-10-31T05:32:44;10.20;99.90
8248;DHT22;4164;49.844;8.830;2022-10-31T05:35:15;10.10;99.90
8248;DHT22;4164;49.844;8.830;2022-10-31T05:37:41;9.90;99.90
8248;DHT22;4164;49.844;8.830;2022-10-31T05:40:09;9.80;99.90
8248;DHT22;4164;49.844;8.830;2022-10-31T05:42:35;9.70;99.90
8248;DHT22;4164;49.844;8.830;2022-10-31T05:45:01;9.40;99.90
8248;DHT22;4164;49.844;8.830;2022-10-31T05:47:26;9.40;99.90
8248;DHT22;4164;49.844;8.830;2022-10-31T05:49:52;9.30;99.90
8248;DHT22;4164;49.844;8.830;2022-10-31T05:52:18;9.20;99.90
8248;DHT22;4164;49.844;8.830;2022-10-31T05:54:44;9.20;99.90
8248;DHT22;4164;49.844;8.830;2022-10-31T05:57:09;9.40;99.90
8248;DHT22;4164;49.844;8.830;2022-10-31T05:59:35;9.40;99.90
8248;DHT22;4164;49.844;8.830;2022-10-31T06:02:01;9.40;99.90
8248;DHT22;4164;49.844;8.830;2022-10-31T06:04:26;9.60;99.90
8248;DHT22;4164;49.844;8.830;2022-10-31T06:06:52;9.50;99.90
8248;DHT22;4164;49.844;8.830;2022-10-31T06:09:17;9.50;99.90
8248;DHT22;4164;49.844;8.830;2022-10-31T06:11:43;9.70;99.90
8248;DHT22;4164;49.844;8.830;2022-10-31T06:14:08;9.80;99.90
8248;DHT22;4164;49.844;8.830;2022-10-31T06:16:34;9.80;99.90
8248;DHT22;4164;49.844;8.830;2022-10-31T06:18:59;9.70;99.90
8248;DHT22;4164;49.844;8.830;2022-10-31T06:21:25;9.80;99.90
8248;DHT22;4164;49.844;8.830;2022-10-31T06:23:50;9.70;99.90
8248;DHT22;4164;49.844;8.830;2022-10-31T06:26:16;9.50;99.90
8248;DHT22;4164;49.844;8.830;2022-10-31T06:28:41;9.40;99.90
8248;DHT22;4164;49.844;8.830;2022-10-31T06:31:07;9.40;99.90
8248;DHT22;4164;49.844;8.830;2022-10-31T06:33:33;9.60;99.90
8248;DHT22;4164;49.844;8.830;2022-10-31T06:35:59;9.60;99.90
8248;DHT22;4164;49.844;8.830;2022-10-31T06:38:26;9.60;99.90
8248;DHT22;4164;49.844;8.830;2022-10-31T06:40:52;9.60;99.90
8248;DHT22;4164;49.844;8.830;2022-10-31T06:43:18;9.60;99.90
8248;DHT22;4164;49.844;8.830;2022-10-31T06:45:43;9.50;99.90
8248;DHT22;4164;49.844;8.830;2022-10-31T06:48:09;9.30;99.90
8248;DHT22;4164;49.844;8.830;2022-10-31T06:50:34;9.20;99.90
8248;DHT22;4164;49.844;8.830;2022-10-31T06:53:00;9.30;99.90
8248;DHT22;4164;49.844;8.830;2022-10-31T06:55:26;9.20;99.90
8248;DHT22;4164;49.844;8.830;2022-10-31T06:57:56;9.60;99.90
8248;DHT22;4164;49.844;8.830;2022-10-31T07:00:23;9.70;99.90
8248;DHT22;4164;49.844;8.830;2022-10-31T07:03:06;9.60;99.90
8248;DHT22;4164;49.844;8.830;2022-10-31T07:05:32;9.50;99.90
8248;DHT22;4164;49.844;8.830;2022-10-31T07:08:00;9.60;99.90
8248;DHT22;4164;49.844;8.830;2022-10-31T07:10:28;9.80;99.90
8248;DHT22;4164;49.844;8.830;2022-10-31T07:12:58;10.20;99.90
8248;DHT22;4164;49.844;8.830;2022-10-31T07:15:25;10.20;99.90
8248;DHT22;4164;49.844;8.830;2022-10-31T07:17:51;10.20;99.90
8248;DHT22;4164;49.844;8.830;2022-10-31T07:20:17;10.30;99.90
8248;DHT22;4164;49.844;8.830;2022-10-31T07:22:43;10.40;99.90
8248;DHT22;4164;49.844;8.830;2022-10-31T07:25:09;10.50;99.90
8248;DHT22;4164;49.844;8.830;2022-10-31T07:27:40;10.60;99.90
8248;DHT22;4164;49.844;8.830;2022-10-31T07:30:08;10.70;99.90
8248;DHT22;4164;49.844;8.830;2022-10-31T07:32:42;10.60;99.90
8248;DHT22;4164;49.844;8.830;2022-10-31T07:35:09;10.70;99.90
8248;DHT22;4164;49.844;8.830;2022-10-31T07:37:35;11.00;99.90
8248;DHT22;4164;49.844;8.830;2022-10-31T07:40:05;11.00;99.90
8248;DHT22;4164;49.844;8.830;2022-10-31T07:42:40;11.10;99.90
8248;DHT22;4164;49.844;8.830;2022-10-31T07:45:08;11.10;99.90
8248;DHT22;4164;49.844;8.830;2022-10-31T07:47:40;11.20;99.90
8248;DHT22;4164;49.844;8.830;2022-10-31T07:50:07;11.30;99.90
8248;DHT22;4164;49.844;8.830;2022-10-31T07:52:33;11.50;99.90
8248;DHT22;4164;49.844;8.830;2022-10-31T07:54:59;11.60;99.90
8248;DHT22;4164;49.844;8.830;2022-10-31T07:57:24;11.40;99.90
8248;DHT22;4164;49.844;8.830;2022-10-31T07:59:50;11.50;99.90
8248;DHT22;4164;49.844;8.830;2022-10-31T08:02:15;11.60;99.90
8248;DHT22;4164;49.844;8.830;2022-10-31T08:04:41;11.70;99.90
8248;DHT22;4164;49.844;8.830;2022-10-31T08:07:06;11.70;99.90
8248;DHT22;4164;49.844;8.830;2022-10-31T08:09:32;11.80;99.90
8248;DHT22;4164;49.844;8.830;2022-10-31T08:11:57;12.00;99.90
8248;DHT22;4164;49.844;8.830;2022-10-31T08:14:26;12.00;99.90
8248;DHT22;4164;49.844;8.830;2022-10-31T08:16:52;12.20;99.90
8248;DHT22;4164;49.844;8.830;2022-10-31T08:19:18;12.60;99.90
8248;DHT22;4164;49.844;8.830;2022-10-31T08:21:44;12.90;99.90
8248;DHT22;4164;49.844;8.830;2022-10-31T08:24:09;12.90;99.90
8248;DHT22;4164;49.844;8.830;2022-10-31T08:26:35;12.80;99.90
8248;DHT22;4164;49.844;8.830;2022-10-31T08:29:00;13.10;99.90
8248;DHT22;4164;49.844;8.830;2022-10-31T08:31:27;13.30;99.90
8248;DHT22;4164;49.844;8.830;2022-10-31T08:33:53;13.50;99.90
8248;DHT22;4164;49.844;8.830;2022-10-31T08:36:20;13.80;99.90
8248;DHT22;4164;49.844;8.830;2022-10-31T08:38:47;14.00;99.90
8248;DHT22;4164;49.844;8.830;2022-10-31T08:41:13;13.90;99.90
8248;DHT22;4164;49.844;8.830;2022-10-31T08:43:38;13.90;99.90
8248;DHT22;4164;49.844;8.830;2022-10-31T08:46:04;13.90;99.90
8248;DHT22;4164;49.844;8.830;2022-10-31T08:48:30;14.30;99.90
8248;DHT22;4164;49.844;8.830;2022-10-31T08:50:58;15.10;99.90
8248;DHT22;4164;49.844;8.830;2022-10-31T08:53:24;15.90;99.90
8248;DHT22;4164;49.844;8.830;2022-10-31T08:55:50;16.20;99.90
8248;DHT22;4164;49.844;8.830;2022-10-31T08:58:18;15.80;99.90
8248;DHT22;4164;49.844;8.830;2022-10-31T09:00:45;15.30;99.90
8248;DHT22;4164;49.844;8.830;2022-10-31T09:03:13;15.20;99.90
8248;DHT22;4164;49.844;8.830;2022-10-31T09:05:40;15.00;99.90
8248;DHT22;4164;49.844;8.830;2022-10-31T09:08:06;15.40;99.90
8248;DHT22;4164;49.844;8.830;2022-10-31T09:10:34;15.30;99.90
8248;DHT22;4164;49.844;8.830;2022-10-31T09:13:02;15.40;99.90
8248;DHT22;4164;49.844;8.830;2022-10-31T09:15:32;15.00;99.90
8248;DHT22;4164;49.844;8.830;2022-10-31T09:17:58;14.90;99.90
8248;DHT22;4164;49.844;8.830;2022-10-31T09:20:23;15.20;99.90
8248;DHT22;4164;49.844;8.830;2022-10-31T09:22:56;15.30;99.90
8248;DHT22;4164;49.844;8.830;2022-10-31T09:25:22;15.20;99.90
8248;DHT22;4164;49.844;8.830;2022-10-31T09:27:48;15.30;99.90
8248;DHT22;4164;49.844;8.830;2022-10-31T09:30:13;15.70;99.90
8248;DHT22;4164;49.844;8.830;2022-10-31T09:32:39;15.70;99.90
8248;DHT22;4164;49.844;8.830;2022-10-31T09:35:05;15.90;99.90
8248;DHT22;4164;49.844;8.830;2022-10-31T09:37:30;15.80;99.90
8248;DHT22;4164;49.844;8.830;2022-10-31T09:39:57;15.70;99.90
8248;DHT22;4164;49.844;8.830;2022-10-31T09:52:43;18.50;99.90
8248;DHT22;4164;49.844;8.830;2022-10-31T09:55:31;19.50;99.90
8248;DHT22;4164;49.844;8.830;2022-10-31T09:58:01;20.20;99.90
8248;DHT22;4164;49.844;8.830;2022-10-31T10:00:27;20.90;99.90
8248;DHT22;4164;49.844;8.830;2022-10-31T10:02:57;20.90;99.90
8248;DHT22;4164;49.844;8.830;2022-10-31T10:05:36;21.50;99.90
8248;DHT22;4164;49.844;8.830;2022-10-31T10:08:20;21.40;99.90
8248;DHT22;4164;49.844;8.830;2022-10-31T10:16:48;20.30;99.90
8248;DHT22;4164;49.844;8.830;2022-10-31T10:22:26;21.30;99.90
8248;DHT22;4164;49.844;8.830;2022-10-31T10:33:08;23.00;99.90
8248;DHT22;4164;49.844;8.830;2022-10-31T10:35:36;23.40;99.90
8248;DHT22;4164;49.844;8.830;2022-10-31T10:38:18;22.90;99.90
8248;DHT22;4164;49.844;8.830;2022-10-31T10:40:46;22.00;99.90
8248;DHT22;4164;49.844;8.830;2022-10-31T10:43:21;21.80;99.90
8248;DHT22;4164;49.844;8.830;2022-10-31T10:46:19;21.90;99.90
8248;DHT22;4164;49.844;8.830;2022-10-31T10:49:19;21.10;99.90
8248;DHT22;4164;49.844;8.830;2022-10-31T10:51:54;20.70;99.90
8248;DHT22;4164;49.844;8.830;2022-10-31T10:57:19;21.30;99.90
8248;DHT22;4164;49.844;8.830;2022-10-31T10:59:46;22.10;99.90
8248;DHT22;4164;49.844;8.830;2022-10-31T11:02:24;22.90;99.90
8248;DHT22;4164;49.844;8.830;2022-10-31T11:04:52;22.90;99.90
8248;DHT22;4164;49.844;8.830;2022-10-31T11:07:19;24.00;99.90
8248;DHT22;4164;49.844;8.830;2022-10-31T11:09:45;24.50;99.90
8248;DHT22;4164;49.844;8.830;2022-10-31T11:12:30;25.20;99.90
8248;DHT22;4164;49.844;8.830;2022-10-31T11:15:02;25.60;99.90
8248;DHT22;4164;49.844;8.830;2022-10-31T11:17:36;26.50;99.90
8248;DHT22;4164;49.844;8.830;2022-10-31T11:20:27;26.60;99.90
8248;DHT22;4164;49.844;8.830;2022-10-31T11:23:14;26.50;99.90
8248;DHT22;4164;49.844;8.830;2022-10-31T11:25:55;26.30;99.90
8248;DHT22;4164;49.844;8.830;2022-10-31T11:28:21;26.00;99.90
8248;DHT22;4164;49.844;8.830;2022-10-31T11:30:50;25.30;99.90
8248;DHT22;4164;49.844;8.830;2022-10-31T11:33:20;24.90;99.90
8248;DHT22;4164;49.844;8.830;2022-10-31T11:35:47;24.60;99.90
8248;DHT22;4164;49.844;8.830;2022-10-31T11:38:19;24.20;99.90
8248;DHT22;4164;49.844;8.830;2022-10-31T11:41:42;23.20;99.90
8248;DHT22;4164;49.844;8.830;2022-10-31T11:44:03;22.90;99.90
8248;DHT22;4164;49.844;8.830;2022-10-31T11:46:40;22.60;99.90
8248;DHT22;4164;49.844;8.830;2022-10-31T11:51:48;21.30;99.90
8248;DHT22;4164;49.844;8.830;2022-10-31T11:54:30;21.00;99.90
8248;DHT22;4164;49.844;8.830;2022-10-31T11:56:57;20.60;99.90
8248;DHT22;4164;49.844;8.830;2022-10-31T11:59:26;20.30;99.90
8248;DHT22;4164;49.844;8.830;2022-10-31T12:01:54;19.90;99.90
8248;DHT22;4164;49.844;8.830;2022-10-31T12:04:29;19.90;99.90
8248;DHT22;4164;49.844;8.830;2022-10-31T12:06:57;19.80;99.90
8248;DHT22;4164;49.844;8.830;2022-10-31T12:09:25;20.10;99.90
8248;DHT22;4164;49.844;8.830;2022-10-31T12:15:12;20.30;99.90
8248;DHT22;4164;49.844;8.830;2022-10-31T12:17:54;20.50;99.90
8248;DHT22;4164;49.844;8.830;2022-10-31T12:23:39;21.20;99.90
8248;DHT22;4164;49.844;8.830;2022-10-31T12:32:20;22.10;99.90
8248;DHT22;4164;49.844;8.830;2022-10-31T12:35:05;21.70;99.90
8248;DHT22;4164;49.844;8.830;2022-10-31T12:45:58;20.80;99.90
8248;DHT22;4164;49.844;8.830;2022-10-31T12:51:37;20.50;99.90
8248;DHT22;4164;49.844;8.830;2022-10-31T12:57:22;20.20;99.90
8248;DHT22;4164;49.844;8.830;2022-10-31T12:59:53;20.40;99.90
8248;DHT22;4164;49.844;8.830;2022-10-31T13:05:16;19.80;99.90
8248;DHT22;4164;49.844;8.830;2022-10-31T13:10:17;19.80;99.90
8248;DHT22;4164;49.844;8.830;2022-10-31T13:12:43;19.80;99.90
8248;DHT22;4164;49.844;8.830;2022-10-31T13:15:20;19.90;99.90
8248;DHT22;4164;49.844;8.830;2022-10-31T13:17:50;20.00;99.90
8248;DHT22;4164;49.844;8.830;2022-10-31T13:20:20;20.00;99.90
8248;DHT22;4164;49.844;8.830;2022-10-31T13:22:50;19.90;99.90
8248;DHT22;4164;49.844;8.830;2022-10-31T13:27:51;20.20;99.90
8248;DHT22;4164;49.844;8.830;2022-10-31T13:30:20;20.10;99.90
8248;DHT22;4164;49.844;8.830;2022-10-31T13:32:58;19.90;99.90
8248;DHT22;4164;49.844;8.830;2022-10-31T13:44:03;19.20;99.90
8248;DHT22;4164;49.844;8.830;2022-10-31T13:48:58;19.10;99.90
8248;DHT22;4164;49.844;8.830;2022-10-31T13:51:30;19.20;99.90
8248;DHT22;4164;49.844;8.830;2022-10-31T13:56:27;19.10;99.90
8248;DHT22;4164;49.844;8.830;2022-10-31T14:01:24;19.10;99.90
8248;DHT22;4164;49.844;8.830;2022-10-31T14:04:00;19.00;99.90
8248;DHT22;4164;49.844;8.830;2022-10-31T14:06:57;18.90;99.90
8248;DHT22;4164;49.844;8.830;2022-10-31T14:12:06;18.70;99.90
8248;DHT22;4164;49.844;8.830;2022-10-31T14:14:47;18.70;99.90
8248;DHT22;4164;49.844;8.830;2022-10-31T14:17:19;18.60;99.90
8248;DHT22;4164;49.844;8.830;2022-10-31T14:19:58;18.60;99.90
8248;DHT22;4164;49.844;8.830;2022-10-31T14:22:29;18.50;99.90
8248;DHT22;4164;49.844;8.830;2022-10-31T14:24:55;18.40;99.90
8248;DHT22;4164;49.844;8.830;2022-10-31T14:29:49;18.70;99.90
8248;DHT22;4164;49.844;8.830;2022-10-31T14:32:24;18.90;99.90
8248;DHT22;4164;49.844;8.830;2022-10-31T14:40:17;19.60;99.90
8248;DHT22;4164;49.844;8.830;2022-10-31T14:45:59;19.60;99.90
8248;DHT22;4164;49.844;8.830;2022-10-31T14:48:44;19.30;99.90
8248;DHT22;4164;49.844;8.830;2022-10-31T14:51:18;19.20;99.90
8248;DHT22;4164;49.844;8.830;2022-10-31T14:53:51;19.00;99.90
8248;DHT22;4164;49.844;8.830;2022-10-31T14:56:29;18.80;99.90
8248;DHT22;4164;49.844;8.830;2022-10-31T14:58:59;18.50;99.90
8248;DHT22;4164;49.844;8.830;2022-10-31T15:01:29;18.30;99.90
8248;DHT22;4164;49.844;8.830;2022-10-31T15:04:05;18.20;99.90
8248;DHT22;4164;49.844;8.830;2022-10-31T15:06:44;18.10;99.90
8248;DHT22;4164;49.844;8.830;2022-10-31T15:09:25;18.10;99.90
8248;DHT22;4164;49.844;8.830;2022-10-31T15:11:51;17.90;99.90
8248;DHT22;4164;49.844;8.830;2022-10-31T15:14:23;17.90;99.90
8248;DHT22;4164;49.844;8.830;2022-10-31T15:16:49;17.90;99.90
8248;DHT22;4164;49.844;8.830;2022-10-31T15:19:21;17.60;99.90
8248;DHT22;4164;49.844;8.830;2022-10-31T15:21:51;17.50;99.90
8248;DHT22;4164;49.844;8.830;2022-10-31T15:24:17;17.30;99.90
8248;DHT22;4164;49.844;8.830;2022-10-31T15:26:51;17.30;99.90
8248;DHT22;4164;49.844;8.830;2022-10-31T15:29:20;17.30;99.90
8248;DHT22;4164;49.844;8.830;2022-10-31T15:31:53;17.20;99.90
8248;DHT22;4164;49.844;8.830;2022-10-31T15:34:38;17.10;99.90
8248;DHT22;4164;49.844;8.830;2022-10-31T15:37:07;17.10;99.90
8248;DHT22;4164;49.844;8.830;2022-10-31T15:39:37;17.00;99.90
8248;DHT22;4164;49.844;8.830;2022-10-31T15:42:03;16.90;99.90
8248;DHT22;4164;49.844;8.830;2022-10-31T15:44:31;16.80;99.90
8248;DHT22;4164;49.844;8.830;2022-10-31T15:47:32;16.60;99.90
8248;DHT22;4164;49.844;8.830;2022-10-31T15:49:56;16.50;99.90
8248;DHT22;4164;49.844;8.830;2022-10-31T15:52:42;16.50;99.90
8248;DHT22;4164;49.844;8.830;2022-10-31T15:57:40;16.40;99.90
8248;DHT22;4164;49.844;8.830;2022-10-31T16:00:22;16.10;99.90
8248;DHT22;4164;49.844;8.830;2022-10-31T16:02:48;15.80;99.90
8248;DHT22;4164;49.844;8.830;2022-10-31T16:05:18;15.70;99.90
8248;DHT22;4164;49.844;8.830;2022-10-31T16:07:49;15.70;99.90
8248;DHT22;4164;49.844;8.830;2022-10-31T16:10:24;15.70;99.90
8248;DHT22;4164;49.844;8.830;2022-10-31T16:12:51;15.80;99.90
8248;DHT22;4164;49.844;8.830;2022-10-31T16:15:19;15.90;99.90
8248;DHT22;4164;49.844;8.830;2022-10-31T16:17:47;16.00;99.90
8248;DHT22;4164;49.844;8.830;2022-10-31T16:20:27;16.20;99.90
8248;DHT22;4164;49.844;8.830;2022-10-31T16:22:55;15.90;99.90
8248;DHT22;4164;49.844;8.830;2022-10-31T16:25:33;15.60;99.90
8248;DHT22;4164;49.844;8.830;2022-10-31T16:28:17;15.50;99.90
8248;DHT22;4164;49.844;8.830;2022-10-31T16:30:47;15.60;99.90
8248;DHT22;4164;49.844;8.830;2022-10-31T16:33:32;15.50;99.90
8248;DHT22;4164;49.844;8.830;2022-10-31T16:36:00;15.30;99.90
8248;DHT22;4164;49.844;8.830;2022-10-31T16:38:28;15.30;99.90
8248;DHT22;4164;49.844;8.830;2022-10-31T16:40:53;15.30;99.90
8248;DHT22;4164;49.844;8.830;2022-10-31T16:43:20;15.20;99.90
8248;DHT22;4164;49.844;8.830;2022-10-31T16:45:51;15.20;99.90
8248;DHT22;4164;49.844;8.830;2022-10-31T16:48:20;15.10;99.90
8248;DHT22;4164;49.844;8.830;2022-10-31T16:50:47;15.10;99.90
8248;DHT22;4164;49.844;8.830;2022-10-31T16:53:14;15.10;99.90
8248;DHT22;4164;49.844;8.830;2022-10-31T16:55:50;15.00;99.90
8248;DHT22;4164;49.844;8.830;2022-10-31T16:58:30;14.90;99.90
8248;DHT22;4164;49.844;8.830;2022-10-31T17:00:58;14.90;99.90
8248;DHT22;4164;49.844;8.830;2022-10-31T17:03:24;14.90;99.90
8248;DHT22;4164;49.844;8.830;2022-10-31T17:05:50;14.90;99.90
8248;DHT22;4164;49.844;8.830;2022-10-31T17:08:16;14.80;99.90
8248;DHT22;4164;49.844;8.830;2022-10-31T17:10:43;14.70;99.90
8248;DHT22;4164;49.844;8.830;2022-10-31T17:13:18;14.80;99.90
8248;DHT22;4164;49.844;8.830;2022-10-31T17:15:47;14.90;99.90
8248;DHT22;4164;49.844;8.830;2022-10-31T17:18:15;15.00;99.90
8248;DHT22;4164;49.844;8.830;2022-10-31T17:20:41;15.00;99.90
8248;DHT22;4164;49.844;8.830;2022-10-31T17:23:12;15.10;99.90
8248;DHT22;4164;49.844;8.830;2022-10-31T17:25:38;15.00;99.90
8248;DHT22;4164;49.844;8.830;2022-10-31T17:28:04;15.10;99.90
8248;DHT22;4164;49.844;8.830;2022-10-31T17:30:30;15.20;99.90
8248;DHT22;4164;49.844;8.830;2022-10-31T17:32:56;15.10;99.90
8248;DHT22;4164;49.844;8.830;2022-10-31T17:35:22;15.10;99.90
8248;DHT22;4164;49.844;8.830;2022-10-31T17:37:48;15.10;99.90
8248;DHT22;4164;49.844;8.830;2022-10-31T17:40:19;15.00;99.90
8248;DHT22;4164;49.844;8.830;2022-10-31T17:42:54;15.00;99.90
8248;DHT22;4164;49.844;8.830;2022-10-31T17:45:20;15.00;99.90
8248;DHT22;4164;49.844;8.830;2022-10-31T17:47:47;15.10;99.90
8248;DHT22;4164;49.844;8.830;2022-10-31T17:50:18;15.10;99.90
8248;DHT22;4164;49.844;8.830;2022-10-31T17:52:44;14.80;99.90
8248;DHT22;4164;49.844;8.830;2022-10-31T17:55:10;14.90;99.90
8248;DHT22;4164;49.844;8.830;2022-10-31T17:57:37;14.80;99.90
8248;DHT22;4164;49.844;8.830;2022-10-31T18:00:05;14.80;99.90
8248;DHT22;4164;49.844;8.830;2022-10-31T18:02:31;14.70;99.90
8248;DHT22;4164;49.844;8.830;2022-10-31T18:04:57;14.60;99.90
8248;DHT22;4164;49.844;8.830;2022-10-31T18:07:23;14.60;99.90
8248;DHT22;4164;49.844;8.830;2022-10-31T18:09:49;14.60;99.90
8248;DHT22;4164;49.844;8.830;2022-10-31T18:12:14;14.60;99.90
8248;DHT22;4164;49.844;8.830;2022-10-31T18:14:41;14.60;99.90
8248;DHT22;4164;49.844;8.830;2022-10-31T18:17:06;14.70;99.90
8248;DHT22;4164;49.844;8.830;2022-10-31T18:19:32;14.70;99.90
8248;DHT22;4164;49.844;8.830;2022-10-31T18:21:58;14.60;99.90